sensor_id;sensor_type;location;lat;lon;timestamp;P1;durP1;ratioP1;P2;durP2;ratioP2
69542;SDS011;56762;49.494;11.768;2023-04-09T00:02:02;7.95;;;4.45;;
69542;SDS011;56762;49.494;11.768;2023-04-09T00:04:30;6.63;;;4.07;;
69542;SDS011;56762;49.494;11.768;2023-04-09T00:06:58;7.82;;;3.88;;
69542;SDS011;56762;49.494;11.768;2023-04-09T00:09:28;8.25;;;4.43;;
69542;SDS011;56762;49.494;11.768;2023-04-09T00:11:56;9.33;;;4.80;;
69542;SDS011;56762;49.494;11.768;2023-04-09T00:14:24;8.43;;;4.40;;
69542;SDS011;56762;49.494;11.768;2023-04-09T00:16:52;8.25;;;4.43;;
69542;SDS011;56762;49.494;11.768;2023-04-09T00:19:21;6.38;;;4.07;;
69542;SDS011;56762;49.494;11.768;2023-04-09T00:21:49;7.97;;;4.70;;
69542;SDS011;56762;49.494;11.768;2023-04-09T00:24:17;9.30;;;5.30;;
69542;SDS011;56762;49.494;11.768;2023-04-09T00:26:47;8.57;;;4.70;;
69542;SDS011;56762;49.494;11.768;2023-04-09T00:29:15;8.80;;;4.68;;
69542;SDS011;56762;49.494;11.768;2023-04-09T00:31:43;8.50;;;4.65;;
69542;SDS011;56762;49.494;11.768;2023-04-09T00:34:11;7.95;;;4.70;;
69542;SDS011;56762;49.494;11.768;2023-04-09T00:36:39;8.47;;;4.70;;
69542;SDS011;56762;49.494;11.768;2023-04-09T00:39:06;9.10;;;4.85;;
69542;SDS011;56762;49.494;11.768;2023-04-09T00:41:34;10.00;;;4.72;;
69542;SDS011;56762;49.494;11.768;2023-04-09T00:44:04;7.25;;;4.20;;
69542;SDS011;56762;49.494;11.768;2023-04-09T00:46:31;7.38;;;4.50;;
69542;SDS011;56762;49.494;11.768;2023-04-09T00:48:59;7.33;;;3.50;;
69542;SDS011;56762;49.494;11.768;2023-04-09T00:51:27;6.15;;;3.72;;
69542;SDS011;56762;49.494;11.768;2023-04-09T00:53:55;6.80;;;3.85;;
69542;SDS011;56762;49.494;11.768;2023-04-09T00:56:23;6.50;;;3.60;;
69542;SDS011;56762;49.494;11.768;2023-04-09T00:58:53;6.30;;;3.80;;
69542;SDS011;56762;49.494;11.768;2023-04-09T01:01:22;7.90;;;4.43;;
69542;SDS011;56762;49.494;11.768;2023-04-09T01:03:50;7.15;;;4.30;;
69542;SDS011;56762;49.494;11.768;2023-04-09T01:06:20;8.48;;;4.50;;
69542;SDS011;56762;49.494;11.768;2023-04-09T01:08:53;8.05;;;4.10;;
69542;SDS011;56762;49.494;11.768;2023-04-09T01:11:31;8.13;;;3.78;;
69542;SDS011;56762;49.494;11.768;2023-04-09T01:14:05;9.07;;;4.63;;
69542;SDS011;56762;49.494;11.768;2023-04-09T01:16:41;10.05;;;4.40;;
69542;SDS011;56762;49.494;11.768;2023-04-09T01:19:17;8.48;;;4.40;;
69542;SDS011;56762;49.494;11.768;2023-04-09T01:21:56;7.13;;;3.85;;
69542;SDS011;56762;49.494;11.768;2023-04-09T01:24:27;7.90;;;4.32;;
69542;SDS011;56762;49.494;11.768;2023-04-09T01:27:05;8.60;;;4.27;;
69542;SDS011;56762;49.494;11.768;2023-04-09T01:29:37;7.75;;;4.20;;
69542;SDS011;56762;49.494;11.768;2023-04-09T01:32:07;9.65;;;4.30;;
69542;SDS011;56762;49.494;11.768;2023-04-09T01:34:36;8.35;;;4.32;;
69542;SDS011;56762;49.494;11.768;2023-04-09T01:37:05;10.90;;;5.40;;
69542;SDS011;56762;49.494;11.768;2023-04-09T01:39:35;12.03;;;6.30;;
69542;SDS011;56762;49.494;11.768;2023-04-09T01:42:04;12.77;;;6.07;;
69542;SDS011;56762;49.494;11.768;2023-04-09T01:44:38;10.77;;;5.32;;
69542;SDS011;56762;49.494;11.768;2023-04-09T01:47:07;9.30;;;5.22;;
69542;SDS011;56762;49.494;11.768;2023-04-09T01:49:36;9.63;;;5.32;;
69542;SDS011;56762;49.494;11.768;2023-04-09T01:52:05;10.17;;;5.50;;
69542;SDS011;56762;49.494;11.768;2023-04-09T01:54:34;9.40;;;5.47;;
69542;SDS011;56762;49.494;11.768;2023-04-09T01:57:02;10.43;;;4.57;;
69542;SDS011;56762;49.494;11.768;2023-04-09T01:59:30;7.97;;;3.70;;
69542;SDS011;56762;49.494;11.768;2023-04-09T02:02:00;9.23;;;4.63;;
69542;SDS011;56762;49.494;11.768;2023-04-09T02:04:33;7.80;;;4.83;;
69542;SDS011;56762;49.494;11.768;2023-04-09T02:07:05;7.28;;;3.80;;
69542;SDS011;56762;49.494;11.768;2023-04-09T02:09:38;9.32;;;4.47;;
69542;SDS011;56762;49.494;11.768;2023-04-09T02:12:09;8.55;;;4.97;;
69542;SDS011;56762;49.494;11.768;2023-04-09T02:14:39;9.25;;;5.13;;
69542;SDS011;56762;49.494;11.768;2023-04-09T02:17:09;8.53;;;5.07;;
69542;SDS011;56762;49.494;11.768;2023-04-09T02:19:38;8.48;;;4.68;;
69542;SDS011;56762;49.494;11.768;2023-04-09T02:22:07;9.20;;;4.97;;
69542;SDS011;56762;49.494;11.768;2023-04-09T02:24:35;10.38;;;4.70;;
69542;SDS011;56762;49.494;11.768;2023-04-09T02:27:03;7.65;;;4.55;;
69542;SDS011;56762;49.494;11.768;2023-04-09T02:29:32;9.53;;;4.73;;
69542;SDS011;56762;49.494;11.768;2023-04-09T02:32:00;8.10;;;4.32;;
69542;SDS011;56762;49.494;11.768;2023-04-09T02:34:30;9.07;;;4.65;;
69542;SDS011;56762;49.494;11.768;2023-04-09T02:36:58;9.68;;;4.93;;
69542;SDS011;56762;49.494;11.768;2023-04-09T02:39:25;7.65;;;4.18;;
69542;SDS011;56762;49.494;11.768;2023-04-09T02:41:53;11.10;;;4.50;;
69542;SDS011;56762;49.494;11.768;2023-04-09T02:44:23;10.88;;;5.10;;
69542;SDS011;56762;49.494;11.768;2023-04-09T02:46:51;7.53;;;4.55;;
69542;SDS011;56762;49.494;11.768;2023-04-09T02:49:19;9.75;;;4.70;;
69542;SDS011;56762;49.494;11.768;2023-04-09T02:51:48;7.55;;;4.28;;
69542;SDS011;56762;49.494;11.768;2023-04-09T02:54:16;8.53;;;4.60;;
69542;SDS011;56762;49.494;11.768;2023-04-09T02:56:44;8.20;;;4.50;;
69542;SDS011;56762;49.494;11.768;2023-04-09T02:59:12;8.35;;;4.43;;
69542;SDS011;56762;49.494;11.768;2023-04-09T03:01:40;8.30;;;4.53;;
69542;SDS011;56762;49.494;11.768;2023-04-09T03:04:08;8.10;;;4.47;;
69542;SDS011;56762;49.494;11.768;2023-04-09T03:06:36;8.93;;;5.00;;
69542;SDS011;56762;49.494;11.768;2023-04-09T03:09:05;9.35;;;4.97;;
69542;SDS011;56762;49.494;11.768;2023-04-09T03:11:33;12.07;;;5.03;;
69542;SDS011;56762;49.494;11.768;2023-04-09T03:14:01;8.35;;;4.07;;
69542;SDS011;56762;49.494;11.768;2023-04-09T03:16:29;9.27;;;4.63;;
69542;SDS011;56762;49.494;11.768;2023-04-09T03:18:57;7.80;;;4.17;;
69542;SDS011;56762;49.494;11.768;2023-04-09T03:21:25;8.50;;;4.50;;
69542;SDS011;56762;49.494;11.768;2023-04-09T03:23:53;9.02;;;4.28;;
69542;SDS011;56762;49.494;11.768;2023-04-09T03:26:22;9.10;;;4.60;;
69542;SDS011;56762;49.494;11.768;2023-04-09T03:28:50;9.73;;;4.97;;
69542;SDS011;56762;49.494;11.768;2023-04-09T03:31:18;8.63;;;4.50;;
69542;SDS011;56762;49.494;11.768;2023-04-09T03:33:46;10.07;;;4.55;;
69542;SDS011;56762;49.494;11.768;2023-04-09T03:36:14;7.68;;;4.32;;
69542;SDS011;56762;49.494;11.768;2023-04-09T03:38:42;8.95;;;4.32;;
69542;SDS011;56762;49.494;11.768;2023-04-09T03:41:10;7.43;;;4.10;;
69542;SDS011;56762;49.494;11.768;2023-04-09T03:43:39;7.53;;;4.10;;
69542;SDS011;56762;49.494;11.768;2023-04-09T03:46:10;6.97;;;3.78;;
69542;SDS011;56762;49.494;11.768;2023-04-09T03:48:39;9.00;;;4.75;;
69542;SDS011;56762;49.494;11.768;2023-04-09T03:51:10;6.85;;;4.10;;
69542;SDS011;56762;49.494;11.768;2023-04-09T03:53:38;7.32;;;3.95;;
69542;SDS011;56762;49.494;11.768;2023-04-09T03:56:07;8.17;;;4.07;;
69542;SDS011;56762;49.494;11.768;2023-04-09T03:58:36;7.15;;;4.10;;
69542;SDS011;56762;49.494;11.768;2023-04-09T04:01:05;6.75;;;3.35;;
69542;SDS011;56762;49.494;11.768;2023-04-09T04:03:33;6.07;;;3.53;;
69542;SDS011;56762;49.494;11.768;2023-04-09T04:06:02;10.25;;;4.45;;
69542;SDS011;56762;49.494;11.768;2023-04-09T04:08:30;8.07;;;4.27;;
69542;SDS011;56762;49.494;11.768;2023-04-09T04:11:01;6.30;;;3.92;;
69542;SDS011;56762;49.494;11.768;2023-04-09T04:13:30;9.48;;;4.53;;
69542;SDS011;56762;49.494;11.768;2023-04-09T04:15:58;9.25;;;4.93;;
69542;SDS011;56762;49.494;11.768;2023-04-09T04:18:27;8.25;;;4.07;;
69542;SDS011;56762;49.494;11.768;2023-04-09T04:20:55;9.07;;;4.40;;
69542;SDS011;56762;49.494;11.768;2023-04-09T04:23:23;10.73;;;5.88;;
69542;SDS011;56762;49.494;11.768;2023-04-09T04:25:51;9.15;;;5.00;;
69542;SDS011;56762;49.494;11.768;2023-04-09T04:28:19;7.78;;;4.80;;
69542;SDS011;56762;49.494;11.768;2023-04-09T04:30:47;8.35;;;4.90;;
69542;SDS011;56762;49.494;11.768;2023-04-09T04:33:15;9.93;;;5.73;;
69542;SDS011;56762;49.494;11.768;2023-04-09T04:35:45;11.63;;;5.47;;
69542;SDS011;56762;49.494;11.768;2023-04-09T04:38:13;9.23;;;5.03;;
69542;SDS011;56762;49.494;11.768;2023-04-09T04:40:41;8.63;;;5.15;;
69542;SDS011;56762;49.494;11.768;2023-04-09T04:43:09;8.05;;;4.53;;
69542;SDS011;56762;49.494;11.768;2023-04-09T04:45:36;10.60;;;5.57;;
69542;SDS011;56762;49.494;11.768;2023-04-09T04:48:05;9.75;;;5.10;;
69542;SDS011;56762;49.494;11.768;2023-04-09T04:50:33;10.50;;;5.10;;
69542;SDS011;56762;49.494;11.768;2023-04-09T04:53:02;9.15;;;4.72;;
69542;SDS011;56762;49.494;11.768;2023-04-09T04:55:30;10.38;;;5.13;;
69542;SDS011;56762;49.494;11.768;2023-04-09T04:57:58;10.77;;;5.60;;
69542;SDS011;56762;49.494;11.768;2023-04-09T05:00:27;12.50;;;6.07;;
69542;SDS011;56762;49.494;11.768;2023-04-09T05:02:54;12.18;;;5.47;;
69542;SDS011;56762;49.494;11.768;2023-04-09T05:05:22;9.63;;;4.78;;
69542;SDS011;56762;49.494;11.768;2023-04-09T05:07:51;11.45;;;5.40;;
69542;SDS011;56762;49.494;11.768;2023-04-09T05:10:20;11.03;;;5.10;;
69542;SDS011;56762;49.494;11.768;2023-04-09T05:12:48;12.60;;;6.10;;
69542;SDS011;56762;49.494;11.768;2023-04-09T05:15:16;16.20;;;7.50;;
69542;SDS011;56762;49.494;11.768;2023-04-09T05:17:45;11.98;;;6.07;;
69542;SDS011;56762;49.494;11.768;2023-04-09T05:20:13;11.70;;;6.25;;
69542;SDS011;56762;49.494;11.768;2023-04-09T05:22:40;11.07;;;5.50;;
69542;SDS011;56762;49.494;11.768;2023-04-09T05:25:08;17.73;;;11.60;;
69542;SDS011;56762;49.494;11.768;2023-04-09T05:27:37;12.27;;;7.30;;
69542;SDS011;56762;49.494;11.768;2023-04-09T05:30:06;11.63;;;6.22;;
69542;SDS011;56762;49.494;11.768;2023-04-09T05:32:35;13.27;;;5.95;;
69542;SDS011;56762;49.494;11.768;2023-04-09T05:35:03;11.17;;;5.13;;
69542;SDS011;56762;49.494;11.768;2023-04-09T05:37:32;9.52;;;4.65;;
69542;SDS011;56762;49.494;11.768;2023-04-09T05:40:00;10.73;;;4.82;;
69542;SDS011;56762;49.494;11.768;2023-04-09T05:42:30;9.57;;;4.72;;
69542;SDS011;56762;49.494;11.768;2023-04-09T05:44:59;10.20;;;4.57;;
69542;SDS011;56762;49.494;11.768;2023-04-09T05:47:27;11.10;;;5.17;;
69542;SDS011;56762;49.494;11.768;2023-04-09T05:53:20;15.80;;;7.40;;
69542;SDS011;56762;49.494;11.768;2023-04-09T05:55:48;12.55;;;7.20;;
69542;SDS011;56762;49.494;11.768;2023-04-09T05:58:16;13.80;;;8.05;;
69542;SDS011;56762;49.494;11.768;2023-04-09T06:03:39;12.40;;;7.38;;
69542;SDS011;56762;49.494;11.768;2023-04-09T06:06:07;13.00;;;7.40;;
69542;SDS011;56762;49.494;11.768;2023-04-09T06:08:40;13.45;;;7.88;;
69542;SDS011;56762;49.494;11.768;2023-04-09T06:11:42;13.95;;;7.32;;
69542;SDS011;56762;49.494;11.768;2023-04-09T06:14:10;12.10;;;7.07;;
69542;SDS011;56762;49.494;11.768;2023-04-09T06:16:43;12.80;;;7.38;;
69542;SDS011;56762;49.494;11.768;2023-04-09T06:19:10;12.63;;;6.97;;
69542;SDS011;56762;49.494;11.768;2023-04-09T06:21:38;15.90;;;8.45;;
69542;SDS011;56762;49.494;11.768;2023-04-09T06:24:08;15.27;;;8.98;;
69542;SDS011;56762;49.494;11.768;2023-04-09T06:26:36;16.83;;;9.80;;
69542;SDS011;56762;49.494;11.768;2023-04-09T06:29:04;18.10;;;9.60;;
69542;SDS011;56762;49.494;11.768;2023-04-09T06:31:32;15.20;;;8.73;;
69542;SDS011;56762;49.494;11.768;2023-04-09T06:34:01;16.60;;;9.90;;
69542;SDS011;56762;49.494;11.768;2023-04-09T06:36:29;15.55;;;8.70;;
69542;SDS011;56762;49.494;11.768;2023-04-09T06:38:58;17.50;;;9.87;;
69542;SDS011;56762;49.494;11.768;2023-04-09T06:41:26;17.42;;;10.20;;
69542;SDS011;56762;49.494;11.768;2023-04-09T06:43:54;17.90;;;9.10;;
69542;SDS011;56762;49.494;11.768;2023-04-09T06:46:21;17.25;;;9.32;;
69542;SDS011;56762;49.494;11.768;2023-04-09T06:48:49;16.73;;;8.43;;
69542;SDS011;56762;49.494;11.768;2023-04-09T06:51:18;16.43;;;8.40;;
69542;SDS011;56762;49.494;11.768;2023-04-09T06:53:47;17.77;;;9.18;;
69542;SDS011;56762;49.494;11.768;2023-04-09T06:56:15;19.58;;;9.40;;
69542;SDS011;56762;49.494;11.768;2023-04-09T06:58:43;22.77;;;10.82;;
69542;SDS011;56762;49.494;11.768;2023-04-09T07:01:11;20.88;;;10.32;;
69542;SDS011;56762;49.494;11.768;2023-04-09T07:03:38;22.50;;;10.17;;
69542;SDS011;56762;49.494;11.768;2023-04-09T07:06:07;21.35;;;10.77;;
69542;SDS011;56762;49.494;11.768;2023-04-09T07:08:36;19.85;;;10.20;;
69542;SDS011;56762;49.494;11.768;2023-04-09T07:11:03;20.35;;;9.95;;
69542;SDS011;56762;49.494;11.768;2023-04-09T07:13:31;20.08;;;9.85;;
69542;SDS011;56762;49.494;11.768;2023-04-09T07:15:59;20.80;;;10.30;;
69542;SDS011;56762;49.494;11.768;2023-04-09T07:18:27;21.10;;;10.38;;
69542;SDS011;56762;49.494;11.768;2023-04-09T07:20:54;21.70;;;10.52;;
69542;SDS011;56762;49.494;11.768;2023-04-09T07:27:04;27.05;;;11.90;;
69542;SDS011;56762;49.494;11.768;2023-04-09T07:29:32;24.70;;;11.57;;
69542;SDS011;56762;49.494;11.768;2023-04-09T07:32:00;25.85;;;11.38;;
69542;SDS011;56762;49.494;11.768;2023-04-09T07:34:29;21.48;;;10.50;;
69542;SDS011;56762;49.494;11.768;2023-04-09T07:36:57;20.52;;;11.27;;
69542;SDS011;56762;49.494;11.768;2023-04-09T07:39:25;21.08;;;10.70;;
69542;SDS011;56762;49.494;11.768;2023-04-09T07:41:55;21.73;;;10.43;;
69542;SDS011;56762;49.494;11.768;2023-04-09T07:44:25;20.50;;;10.27;;
69542;SDS011;56762;49.494;11.768;2023-04-09T07:46:53;20.65;;;10.70;;
69542;SDS011;56762;49.494;11.768;2023-04-09T07:49:21;20.42;;;9.93;;
69542;SDS011;56762;49.494;11.768;2023-04-09T07:51:51;20.02;;;10.48;;
69542;SDS011;56762;49.494;11.768;2023-04-09T07:54:19;20.10;;;10.70;;
69542;SDS011;56762;49.494;11.768;2023-04-09T07:56:47;22.42;;;10.65;;
69542;SDS011;56762;49.494;11.768;2023-04-09T07:59:15;20.08;;;10.15;;
69542;SDS011;56762;49.494;11.768;2023-04-09T08:01:44;20.58;;;10.13;;
69542;SDS011;56762;49.494;11.768;2023-04-09T08:04:11;20.38;;;10.40;;
69542;SDS011;56762;49.494;11.768;2023-04-09T08:06:40;21.43;;;11.27;;
69542;SDS011;56762;49.494;11.768;2023-04-09T08:09:36;18.30;;;10.15;;
69542;SDS011;56762;49.494;11.768;2023-04-09T08:12:03;21.48;;;11.93;;
69542;SDS011;56762;49.494;11.768;2023-04-09T08:14:31;18.80;;;10.48;;
69542;SDS011;56762;49.494;11.768;2023-04-09T08:17:04;21.02;;;10.25;;
69542;SDS011;56762;49.494;11.768;2023-04-09T08:19:31;19.30;;;10.73;;
69542;SDS011;56762;49.494;11.768;2023-04-09T08:21:59;21.45;;;11.27;;
69542;SDS011;56762;49.494;11.768;2023-04-09T08:24:27;19.33;;;10.45;;
69542;SDS011;56762;49.494;11.768;2023-04-09T08:26:56;19.42;;;10.45;;
69542;SDS011;56762;49.494;11.768;2023-04-09T08:29:23;19.85;;;11.13;;
69542;SDS011;56762;49.494;11.768;2023-04-09T08:31:53;21.00;;;11.20;;
69542;SDS011;56762;49.494;11.768;2023-04-09T08:34:23;23.88;;;12.48;;
69542;SDS011;56762;49.494;11.768;2023-04-09T08:36:52;32.42;;;17.05;;
69542;SDS011;56762;49.494;11.768;2023-04-09T08:39:20;21.35;;;11.35;;
69542;SDS011;56762;49.494;11.768;2023-04-09T08:41:48;22.83;;;11.80;;
69542;SDS011;56762;49.494;11.768;2023-04-09T08:44:18;26.10;;;13.33;;
69542;SDS011;56762;49.494;11.768;2023-04-09T08:46:47;23.55;;;12.50;;
69542;SDS011;56762;49.494;11.768;2023-04-09T08:49:15;19.60;;;10.07;;
69542;SDS011;56762;49.494;11.768;2023-04-09T08:51:45;18.30;;;9.45;;
69542;SDS011;56762;49.494;11.768;2023-04-09T08:54:14;20.27;;;10.38;;
69542;SDS011;56762;49.494;11.768;2023-04-09T08:56:44;17.17;;;8.90;;
69542;SDS011;56762;49.494;11.768;2023-04-09T08:59:13;16.52;;;9.23;;
69542;SDS011;56762;49.494;11.768;2023-04-09T09:01:42;18.33;;;9.10;;
69542;SDS011;56762;49.494;11.768;2023-04-09T09:04:12;15.23;;;8.00;;
69542;SDS011;56762;49.494;11.768;2023-04-09T09:06:40;16.95;;;8.45;;
69542;SDS011;56762;49.494;11.768;2023-04-09T09:09:09;14.97;;;8.10;;
69542;SDS011;56762;49.494;11.768;2023-04-09T09:11:40;15.13;;;8.48;;
69542;SDS011;56762;49.494;11.768;2023-04-09T09:14:10;16.00;;;8.60;;
69542;SDS011;56762;49.494;11.768;2023-04-09T09:16:42;15.82;;;8.07;;
69542;SDS011;56762;49.494;11.768;2023-04-09T09:19:27;17.73;;;9.60;;
69542;SDS011;56762;49.494;11.768;2023-04-09T09:21:57;14.20;;;7.87;;
69542;SDS011;56762;49.494;11.768;2023-04-09T09:24:27;16.00;;;8.77;;
69542;SDS011;56762;49.494;11.768;2023-04-09T09:26:55;15.68;;;8.43;;
69542;SDS011;56762;49.494;11.768;2023-04-09T09:29:24;16.35;;;8.88;;
69542;SDS011;56762;49.494;11.768;2023-04-09T09:31:53;15.85;;;8.35;;
69542;SDS011;56762;49.494;11.768;2023-04-09T09:34:23;16.97;;;8.20;;
69542;SDS011;56762;49.494;11.768;2023-04-09T09:36:51;16.95;;;8.50;;
69542;SDS011;56762;49.494;11.768;2023-04-09T09:39:19;14.30;;;7.53;;
69542;SDS011;56762;49.494;11.768;2023-04-09T09:41:48;15.80;;;9.00;;
69542;SDS011;56762;49.494;11.768;2023-04-09T09:44:33;15.75;;;8.13;;
69542;SDS011;56762;49.494;11.768;2023-04-09T09:47:02;14.97;;;8.00;;
69542;SDS011;56762;49.494;11.768;2023-04-09T09:49:30;12.65;;;7.22;;
69542;SDS011;56762;49.494;11.768;2023-04-09T09:51:58;13.18;;;6.70;;
69542;SDS011;56762;49.494;11.768;2023-04-09T09:54:28;12.77;;;6.97;;
69542;SDS011;56762;49.494;11.768;2023-04-09T09:57:03;13.43;;;7.22;;
69542;SDS011;56762;49.494;11.768;2023-04-09T09:59:36;11.17;;;6.13;;
69542;SDS011;56762;49.494;11.768;2023-04-09T10:02:08;11.45;;;6.75;;
69542;SDS011;56762;49.494;11.768;2023-04-09T10:04:41;11.05;;;5.60;;
69542;SDS011;56762;49.494;11.768;2023-04-09T10:07:10;10.85;;;5.53;;
69542;SDS011;56762;49.494;11.768;2023-04-09T10:09:40;11.15;;;6.28;;
69542;SDS011;56762;49.494;11.768;2023-04-09T10:12:13;12.47;;;6.60;;
69542;SDS011;56762;49.494;11.768;2023-04-09T10:14:42;10.55;;;6.05;;
69542;SDS011;56762;49.494;11.768;2023-04-09T10:17:11;9.30;;;5.43;;
69542;SDS011;56762;49.494;11.768;2023-04-09T10:19:40;9.98;;;5.50;;
69542;SDS011;56762;49.494;11.768;2023-04-09T10:22:11;9.85;;;5.40;;
69542;SDS011;56762;49.494;11.768;2023-04-09T10:24:42;9.57;;;5.70;;
69542;SDS011;56762;49.494;11.768;2023-04-09T10:27:12;10.18;;;5.88;;
69542;SDS011;56762;49.494;11.768;2023-04-09T10:29:43;9.68;;;5.43;;
69542;SDS011;56762;49.494;11.768;2023-04-09T10:32:12;8.43;;;5.05;;
69542;SDS011;56762;49.494;11.768;2023-04-09T10:34:47;10.02;;;5.38;;
69542;SDS011;56762;49.494;11.768;2023-04-09T10:37:19;10.10;;;5.83;;
69542;SDS011;56762;49.494;11.768;2023-04-09T10:39:50;10.07;;;5.43;;
69542;SDS011;56762;49.494;11.768;2023-04-09T10:42:21;11.75;;;5.90;;
69542;SDS011;56762;49.494;11.768;2023-04-09T10:45:04;11.00;;;6.43;;
69542;SDS011;56762;49.494;11.768;2023-04-09T10:47:34;10.15;;;5.85;;
69542;SDS011;56762;49.494;11.768;2023-04-09T10:50:13;10.40;;;5.53;;
69542;SDS011;56762;49.494;11.768;2023-04-09T10:52:42;9.80;;;5.28;;
69542;SDS011;56762;49.494;11.768;2023-04-09T10:57:58;11.20;;;5.88;;
69542;SDS011;56762;49.494;11.768;2023-04-09T11:00:25;9.27;;;5.50;;
69542;SDS011;56762;49.494;11.768;2023-04-09T11:02:58;11.13;;;6.37;;
69542;SDS011;56762;49.494;11.768;2023-04-09T11:05:49;10.65;;;5.82;;
69542;SDS011;56762;49.494;11.768;2023-04-09T11:08:19;12.23;;;6.30;;
69542;SDS011;56762;49.494;11.768;2023-04-09T11:10:48;9.07;;;5.40;;
69542;SDS011;56762;49.494;11.768;2023-04-09T11:13:19;11.23;;;5.75;;
69542;SDS011;56762;49.494;11.768;2023-04-09T11:15:47;11.77;;;6.03;;
69542;SDS011;56762;49.494;11.768;2023-04-09T11:18:18;11.25;;;6.13;;
69542;SDS011;56762;49.494;11.768;2023-04-09T11:20:47;11.30;;;6.13;;
69542;SDS011;56762;49.494;11.768;2023-04-09T11:23:16;11.90;;;6.82;;
69542;SDS011;56762;49.494;11.768;2023-04-09T11:25:47;11.80;;;6.10;;
69542;SDS011;56762;49.494;11.768;2023-04-09T11:28:16;11.60;;;5.80;;
69542;SDS011;56762;49.494;11.768;2023-04-09T11:30:46;10.40;;;5.82;;
69542;SDS011;56762;49.494;11.768;2023-04-09T11:33:16;10.77;;;5.85;;
69542;SDS011;56762;49.494;11.768;2023-04-09T11:35:46;11.10;;;6.32;;
69542;SDS011;56762;49.494;11.768;2023-04-09T11:38:14;10.90;;;6.22;;
69542;SDS011;56762;49.494;11.768;2023-04-09T11:40:43;10.23;;;5.90;;
69542;SDS011;56762;49.494;11.768;2023-04-09T11:43:14;13.68;;;6.32;;
69542;SDS011;56762;49.494;11.768;2023-04-09T11:45:43;13.27;;;6.75;;
69542;SDS011;56762;49.494;11.768;2023-04-09T11:48:14;10.60;;;6.10;;
69542;SDS011;56762;49.494;11.768;2023-04-09T11:50:44;12.73;;;7.25;;
69542;SDS011;56762;49.494;11.768;2023-04-09T11:53:18;10.53;;;5.63;;
69542;SDS011;56762;49.494;11.768;2023-04-09T11:55:48;9.70;;;5.68;;
69542;SDS011;56762;49.494;11.768;2023-04-09T11:58:19;11.15;;;6.00;;
69542;SDS011;56762;49.494;11.768;2023-04-09T12:00:54;11.30;;;5.93;;
69542;SDS011;56762;49.494;11.768;2023-04-09T12:03:28;12.90;;;6.57;;
69542;SDS011;56762;49.494;11.768;2023-04-09T12:05:58;10.63;;;5.73;;
69542;SDS011;56762;49.494;11.768;2023-04-09T12:08:28;10.93;;;5.95;;
69542;SDS011;56762;49.494;11.768;2023-04-09T12:10:56;10.63;;;5.75;;
69542;SDS011;56762;49.494;11.768;2023-04-09T12:13:35;11.65;;;6.28;;
69542;SDS011;56762;49.494;11.768;2023-04-09T12:16:06;14.52;;;6.88;;
69542;SDS011;56762;49.494;11.768;2023-04-09T12:18:35;11.80;;;6.47;;
69542;SDS011;56762;49.494;11.768;2023-04-09T12:21:04;11.40;;;6.57;;
69542;SDS011;56762;49.494;11.768;2023-04-09T12:23:32;11.57;;;6.75;;
69542;SDS011;56762;49.494;11.768;2023-04-09T12:26:00;12.40;;;6.90;;
69542;SDS011;56762;49.494;11.768;2023-04-09T12:28:29;12.55;;;6.47;;
69542;SDS011;56762;49.494;11.768;2023-04-09T12:30:57;10.20;;;5.77;;
69542;SDS011;56762;49.494;11.768;2023-04-09T12:33:26;10.27;;;5.30;;
69542;SDS011;56762;49.494;11.768;2023-04-09T12:35:54;10.45;;;5.57;;
69542;SDS011;56762;49.494;11.768;2023-04-09T12:38:23;9.82;;;5.43;;
69542;SDS011;56762;49.494;11.768;2023-04-09T12:40:51;11.13;;;6.20;;
69542;SDS011;56762;49.494;11.768;2023-04-09T12:43:19;9.63;;;5.60;;
69542;SDS011;56762;49.494;11.768;2023-04-09T12:45:49;12.25;;;6.22;;
69542;SDS011;56762;49.494;11.768;2023-04-09T12:48:18;10.35;;;5.93;;
69542;SDS011;56762;49.494;11.768;2023-04-09T12:50:49;9.73;;;5.68;;
69542;SDS011;56762;49.494;11.768;2023-04-09T12:53:17;11.40;;;6.10;;
69542;SDS011;56762;49.494;11.768;2023-04-09T12:55:45;9.97;;;5.83;;
69542;SDS011;56762;49.494;11.768;2023-04-09T12:58:14;10.50;;;6.03;;
69542;SDS011;56762;49.494;11.768;2023-04-09T13:00:42;10.13;;;5.80;;
69542;SDS011;56762;49.494;11.768;2023-04-09T13:03:10;9.70;;;5.57;;
69542;SDS011;56762;49.494;11.768;2023-04-09T13:05:38;10.60;;;5.70;;
69542;SDS011;56762;49.494;11.768;2023-04-09T13:08:07;9.00;;;5.17;;
69542;SDS011;56762;49.494;11.768;2023-04-09T13:10:35;11.10;;;5.70;;
69542;SDS011;56762;49.494;11.768;2023-04-09T13:13:02;10.32;;;5.90;;
69542;SDS011;56762;49.494;11.768;2023-04-09T13:15:32;9.02;;;5.22;;
69542;SDS011;56762;49.494;11.768;2023-04-09T13:18:00;9.32;;;5.10;;
69542;SDS011;56762;49.494;11.768;2023-04-09T13:20:28;8.90;;;5.40;;
69542;SDS011;56762;49.494;11.768;2023-04-09T13:22:57;8.68;;;4.93;;
69542;SDS011;56762;49.494;11.768;2023-04-09T13:25:27;8.82;;;4.85;;
69542;SDS011;56762;49.494;11.768;2023-04-09T13:27:54;9.00;;;5.32;;
69542;SDS011;56762;49.494;11.768;2023-04-09T13:30:22;9.35;;;5.38;;
69542;SDS011;56762;49.494;11.768;2023-04-09T13:32:50;10.57;;;5.83;;
69542;SDS011;56762;49.494;11.768;2023-04-09T13:35:18;9.07;;;5.55;;
69542;SDS011;56762;49.494;11.768;2023-04-09T13:37:47;9.45;;;5.10;;
69542;SDS011;56762;49.494;11.768;2023-04-09T13:40:14;9.10;;;5.22;;
69542;SDS011;56762;49.494;11.768;2023-04-09T13:42:44;8.50;;;4.93;;
69542;SDS011;56762;49.494;11.768;2023-04-09T13:45:12;9.20;;;4.97;;
69542;SDS011;56762;49.494;11.768;2023-04-09T13:47:39;8.40;;;4.93;;
69542;SDS011;56762;49.494;11.768;2023-04-09T13:50:08;9.85;;;5.65;;
69542;SDS011;56762;49.494;11.768;2023-04-09T13:52:38;9.55;;;5.55;;
69542;SDS011;56762;49.494;11.768;2023-04-09T13:55:06;8.43;;;5.13;;
69542;SDS011;56762;49.494;11.768;2023-04-09T13:57:35;9.33;;;5.90;;
69542;SDS011;56762;49.494;11.768;2023-04-09T14:00:05;10.23;;;5.72;;
69542;SDS011;56762;49.494;11.768;2023-04-09T14:02:34;12.85;;;5.60;;
69542;SDS011;56762;49.494;11.768;2023-04-09T14:05:02;12.18;;;6.10;;
69542;SDS011;56762;49.494;11.768;2023-04-09T14:07:30;10.02;;;5.63;;
69542;SDS011;56762;49.494;11.768;2023-04-09T14:09:57;10.27;;;5.60;;
69542;SDS011;56762;49.494;11.768;2023-04-09T14:12:25;8.65;;;5.53;;
69542;SDS011;56762;49.494;11.768;2023-04-09T14:14:53;9.45;;;5.55;;
69542;SDS011;56762;49.494;11.768;2023-04-09T14:17:22;10.75;;;5.60;;
69542;SDS011;56762;49.494;11.768;2023-04-09T14:19:51;9.88;;;5.43;;
69542;SDS011;56762;49.494;11.768;2023-04-09T14:22:19;12.07;;;6.27;;
69542;SDS011;56762;49.494;11.768;2023-04-09T14:24:47;18.85;;;9.57;;
69542;SDS011;56762;49.494;11.768;2023-04-09T14:27:15;11.35;;;6.35;;
69542;SDS011;56762;49.494;11.768;2023-04-09T14:29:43;22.73;;;10.07;;
69542;SDS011;56762;49.494;11.768;2023-04-09T14:32:10;22.73;;;9.80;;
69542;SDS011;56762;49.494;11.768;2023-04-09T14:34:40;10.70;;;6.07;;
69542;SDS011;56762;49.494;11.768;2023-04-09T14:37:08;9.68;;;5.95;;
69542;SDS011;56762;49.494;11.768;2023-04-09T14:39:36;9.30;;;5.25;;
69542;SDS011;56762;49.494;11.768;2023-04-09T14:42:05;9.40;;;5.43;;
69542;SDS011;56762;49.494;11.768;2023-04-09T14:44:33;10.82;;;5.53;;
69542;SDS011;56762;49.494;11.768;2023-04-09T14:47:01;9.57;;;5.43;;
69542;SDS011;56762;49.494;11.768;2023-04-09T14:49:29;10.32;;;5.78;;
69542;SDS011;56762;49.494;11.768;2023-04-09T14:51:58;8.55;;;5.05;;